Time;durP1;ratioP1;P1;durP2;ratioP2;P2;SDS_P1;SDS_P2;PMS_P1;PMS_P2;Temp;Humidity;BMP_temperature;BMP_pressure;BME280_temperature;BME280_humidity;BME280_pressure;Samples;Min_cycle;Max_cycle;Signal;HPM_P1;HPM_P2
2023/11/18 00:00:01;;;;;;;4.40;3.87;;;5.50;99.90;;;;;;6215777;23;20154;-54
2023/11/18 00:02:27;;;;;;;4.80;4.40;;;5.50;99.90;;;;;;6216053;23;20393;-55
2023/11/18 00:04:52;;;;;;;5.00;4.40;;;5.50;99.90;;;;;;6190433;23;20409;-53
2023/11/18 00:07:18;;;;;;;4.73;4.33;;;5.50;99.90;;;;;;6216935;23;20385;-55
2023/11/18 00:09:45;;;;;;;5.20;4.57;;;5.40;99.90;;;;;;6216232;23;20216;-56
2023/11/18 00:12:12;;;;;;;4.17;3.77;;;5.40;99.90;;;;;;6215434;23;20182;-57
2023/11/18 00:14:37;;;;;;;4.83;4.37;;;5.40;99.90;;;;;;6216146;23;20419;-56
2023/11/18 00:17:04;;;;;;;4.30;3.80;;;5.50;99.90;;;;;;6215388;23;20357;-55
2023/11/18 00:19:30;;;;;;;4.30;3.90;;;5.50;99.90;;;;;;6190092;23;20241;-53
2023/11/18 00:21:57;;;;;;;3.77;3.47;;;5.50;99.90;;;;;;6215552;23;20408;-56
2023/11/18 00:24:24;;;;;;;4.53;4.13;;;5.40;99.90;;;;;;6216042;23;20460;-55
2023/11/18 00:26:50;;;;;;;5.33;4.93;;;5.40;99.90;;;;;;6215815;23;20457;-54
2023/11/18 00:29:15;;;;;;;4.53;3.90;;;5.40;99.90;;;;;;6215627;23;20360;-55
2023/11/18 00:31:41;;;;;;;4.60;4.20;;;5.40;99.90;;;;;;6214720;23;20488;-55
2023/11/18 00:34:06;;;;;;;4.73;4.17;;;5.30;99.90;;;;;;6215713;23;20150;-54
2023/11/18 00:36:32;;;;;;;4.37;3.97;;;5.30;99.90;;;;;;6215770;23;20154;-54
2023/11/18 00:38:58;;;;;;;4.50;4.10;;;5.30;99.90;;;;;;6213403;23;20399;-53
2023/11/18 00:41:23;;;;;;;4.27;3.87;;;5.30;99.90;;;;;;6214750;23;20160;-55
2023/11/18 00:43:49;;;;;;;4.33;3.93;;;5.30;99.90;;;;;;6213987;23;20134;-55
2023/11/18 00:46:14;;;;;;;4.33;3.87;;;5.20;99.90;;;;;;6214232;23;20181;-52
2023/11/18 00:48:40;;;;;;;4.77;4.33;;;5.20;99.90;;;;;;6213939;23;20635;-55
2023/11/18 00:51:08;;;;;;;4.73;4.33;;;5.20;99.90;;;;;;6215146;23;20356;-56
2023/11/18 00:53:34;;;;;;;4.83;4.43;;;5.20;99.90;;;;;;6215228;23;20150;-58
2023/11/18 00:56:01;;;;;;;4.23;3.90;;;5.10;99.90;;;;;;6213713;23;20372;-55
2023/11/18 00:58:26;;;;;;;3.80;3.50;;;5.10;99.90;;;;;;6214417;23;20195;-56
2023/11/18 01:00:52;;;;;;;4.30;3.90;;;5.00;99.90;;;;;;6215140;23;20734;-57
2023/11/18 01:03:18;;;;;;;4.17;3.77;;;5.00;99.90;;;;;;6214661;23;20154;-57
2023/11/18 01:05:44;;;;;;;3.80;3.50;;;5.00;99.90;;;;;;6215096;23;20220;-54
2023/11/18 01:08:09;;;;;;;4.80;4.30;;;5.00;99.90;;;;;;6215275;23;20154;-54
2023/11/18 01:10:35;;;;;;;4.30;3.90;;;5.00;99.90;;;;;;6215183;23;20353;-55
2023/11/18 01:13:01;;;;;;;4.50;4.10;;;5.00;99.90;;;;;;6215419;23;20413;-57
2023/11/18 01:15:27;;;;;;;4.00;3.70;;;5.00;99.90;;;;;;6216484;23;20165;-57
2023/11/18 01:17:52;;;;;;;3.80;3.50;;;5.10;99.90;;;;;;6216163;23;20613;-54
2023/11/18 01:20:21;;;;;;;3.60;3.30;;;5.10;99.90;;;;;;6216183;23;20197;-56
2023/11/18 01:22:48;;;;;;;4.00;3.70;;;5.10;99.90;;;;;;6215208;23;20161;-57
2023/11/18 01:25:18;;;;;;;3.93;3.33;;;5.10;99.90;;;;;;6217043;23;20433;-56
2023/11/18 01:27:47;;;;;;;4.20;3.80;;;5.10;99.90;;;;;;6216771;23;20463;-57
2023/11/18 01:30:14;;;;;;;4.60;4.07;;;5.20;99.90;;;;;;6216574;23;20384;-55
2023/11/18 01:32:40;;;;;;;4.73;4.33;;;5.20;99.90;;;;;;6215639;23;20434;-56
2023/11/18 01:35:08;;;;;;;3.40;3.10;;;5.20;99.90;;;;;;6216456;23;20388;-57
2023/11/18 01:37:33;;;;;;;3.50;3.20;;;5.20;99.90;;;;;;6216428;23;20353;-54
2023/11/18 01:39:59;;;;;;;4.47;4.07;;;5.20;99.90;;;;;;6215437;23;20483;-56
2023/11/18 01:42:24;;;;;;;7.83;3.70;;;5.20;99.90;;;;;;6216886;23;20153;-55
2023/11/18 01:44:51;;;;;;;3.73;3.33;;;5.20;99.90;;;;;;6216595;23;20185;-55
2023/11/18 01:47:16;;;;;;;3.60;3.30;;;5.20;99.90;;;;;;6217887;23;20126;-53
2023/11/18 01:49:43;;;;;;;4.40;4.00;;;5.20;99.90;;;;;;6218078;23;20396;-53
2023/11/18 01:52:09;;;;;;;4.63;4.17;;;5.20;99.90;;;;;;6218563;23;20413;-53
2023/11/18 01:54:40;;;;;;;4.90;4.50;;;5.20;99.90;;;;;;6217284;23;20393;-57
2023/11/18 01:57:06;;;;;;;4.13;3.80;;;5.20;99.90;;;;;;6192455;23;20444;-54
2023/11/18 01:59:33;;;;;;;3.93;3.63;;;5.20;99.90;;;;;;6191657;23;20424;-55
2023/11/18 02:01:59;;;;;;;5.33;4.37;;;5.20;99.90;;;;;;6217923;23;20361;-55
2023/11/18 02:04:25;;;;;;;4.80;3.90;;;5.30;99.90;;;;;;6218336;23;20424;-55
2023/11/18 02:06:52;;;;;;;4.33;3.93;;;5.30;99.90;;;;;;6218093;23;20471;-55
2023/11/18 02:09:23;;;;;;;4.33;3.93;;;5.30;99.90;;;;;;6190033;23;20392;-53
2023/11/18 02:12:05;;;;;;;3.90;3.60;;;5.30;99.90;;;;;;6190644;23;20650;-55
2023/11/18 02:14:33;;;;;;;4.23;3.87;;;5.30;99.90;;;;;;6216857;23;20373;-56
2023/11/18 02:17:00;;;;;;;3.80;3.40;;;5.30;99.90;;;;;;6216763;23;20353;-55
2023/11/18 02:19:26;;;;;;;4.50;4.10;;;5.30;99.90;;;;;;6165755;23;20397;-54
2023/11/18 02:21:54;;;;;;;3.43;3.10;;;5.30;99.90;;;;;;6217697;23;20389;-55
2023/11/18 02:24:30;;;;;;;3.87;3.57;;;5.30;99.90;;;;;;6218129;23;20756;-53
2023/11/18 02:27:00;;;;;;;4.20;3.80;;;5.30;99.90;;;;;;6216855;23;20385;-55
2023/11/18 02:29:28;;;;;;;4.97;4.50;;;5.30;99.90;;;;;;6216972;23;20733;-53
2023/11/18 02:32:02;;;;;;;6.40;5.00;;;5.30;99.90;;;;;;6189481;23;20424;-55
2023/11/18 02:34:31;;;;;;;3.70;3.40;;;5.30;99.90;;;;;;6189793;23;20472;-56
2023/11/18 02:37:01;;;;;;;4.17;3.77;;;5.30;99.90;;;;;;6216834;23;20445;-56
2023/11/18 02:39:40;;;;;;;3.80;3.50;;;5.30;99.90;;;;;;6190946;23;20817;-55
2023/11/18 02:42:08;;;;;;;3.63;3.33;;;5.30;99.90;;;;;;6216604;23;20697;-55
2023/11/18 02:44:35;;;;;;;2.93;2.70;;;5.30;99.90;;;;;;6189757;23;20441;-54
2023/11/18 02:47:02;;;;;;;3.30;3.00;;;5.30;99.90;;;;;;6217009;23;20353;-53
2023/11/18 02:49:29;;;;;;;2.70;2.50;;;5.20;99.90;;;;;;6218041;23;20350;-53
2023/11/18 02:51:55;;;;;;;3.50;3.20;;;5.20;99.90;;;;;;6217250;23;20162;-54
2023/11/18 02:54:20;;;;;;;2.97;2.60;;;5.10;99.90;;;;;;6217126;23;20412;-55
2023/11/18 02:56:46;;;;;;;3.37;2.90;;;5.10;99.90;;;;;;6217342;23;20534;-55
2023/11/18 02:59:12;;;;;;;2.90;2.57;;;5.10;99.90;;;;;;6216657;23;20141;-55
2023/11/18 03:01:41;;;;;;;2.57;2.37;;;5.10;99.90;;;;;;6216959;23;20126;-55
2023/11/18 03:04:07;;;;;;;3.17;2.80;;;5.10;99.90;;;;;;6216129;23;20385;-54
2023/11/18 03:06:32;;;;;;;4.00;3.27;;;5.10;99.90;;;;;;6217046;23;20393;-54
2023/11/18 03:08:58;;;;;;;2.93;2.73;;;5.00;99.90;;;;;;6215912;23;20426;-54
2023/11/18 03:11:24;;;;;;;2.80;2.60;;;5.00;99.90;;;;;;6216676;23;20544;-56
2023/11/18 03:13:50;;;;;;;3.47;3.17;;;5.00;99.90;;;;;;6216549;23;20498;-53
2023/11/18 03:16:16;;;;;;;3.40;3.10;;;4.90;99.90;;;;;;6217270;23;20381;-55
2023/11/18 03:18:42;;;;;;;3.60;3.30;;;4.90;99.90;;;;;;6217458;23;20154;-55
2023/11/18 03:21:14;;;;;;;3.50;3.07;;;4.90;99.90;;;;;;6190832;23;20496;-53
2023/11/18 03:23:41;;;;;;;2.80;2.60;;;4.90;99.90;;;;;;6217360;23;20389;-56
2023/11/18 03:26:12;;;;;;;3.50;2.90;;;4.80;99.90;;;;;;6217142;23;20404;-54
2023/11/18 03:28:38;;;;;;;3.17;2.87;;;4.80;99.90;;;;;;6217120;23;20380;-56
2023/11/18 03:31:05;;;;;;;3.20;2.90;;;4.80;99.90;;;;;;6191112;23;20385;-55
2023/11/18 03:33:30;;;;;;;3.40;3.10;;;4.70;99.90;;;;;;6217860;23;20389;-57
2023/11/18 03:35:56;;;;;;;3.37;3.07;;;4.60;99.90;;;;;;6218013;23;20392;-56
2023/11/18 03:38:23;;;;;;;3.07;2.77;;;4.60;99.90;;;;;;6217769;23;20223;-54
2023/11/18 03:40:49;;;;;;;2.53;2.33;;;4.50;99.90;;;;;;6217787;23;20157;-57
2023/11/18 03:43:14;;;;;;;3.47;3.17;;;4.50;99.90;;;;;;6217293;23;20668;-56
2023/11/18 03:45:40;;;;;;;4.40;3.37;;;4.40;99.90;;;;;;6216830;23;20186;-53
2023/11/18 03:48:06;;;;;;;3.40;3.10;;;4.40;99.90;;;;;;6217067;23;20150;-55
2023/11/18 03:50:33;;;;;;;3.50;3.13;;;4.40;1.00;;;;;;6216770;23;20162;-55
2023/11/18 03:52:58;;;;;;;3.23;2.93;;;4.40;99.90;;;;;;6217021;23;20444;-58
2023/11/18 03:55:25;;;;;;;3.60;3.30;;;4.40;99.90;;;;;;6217262;23;20392;-54
2023/11/18 03:57:52;;;;;;;3.10;2.80;;;4.30;99.90;;;;;;6217604;23;20158;-57
2023/11/18 04:00:17;;;;;;;3.40;3.10;;;4.30;99.90;;;;;;6190146;23;20412;-55
2023/11/18 04:02:45;;;;;;;3.90;3.60;;;4.30;99.90;;;;;;6216595;23;20380;-54
2023/11/18 04:05:12;;;;;;;4.07;3.30;;;4.30;99.90;;;;;;6190848;23;20412;-56
2023/11/18 04:07:38;;;;;;;4.30;3.90;;;4.30;99.90;;;;;;6216287;23;20428;-57
2023/11/18 04:10:06;;;;;;;3.43;3.13;;;4.30;99.90;;;;;;6216579;23;20850;-56
2023/11/18 04:12:32;;;;;;;3.40;3.17;;;4.20;99.90;;;;;;6216729;23;20393;-57
2023/11/18 04:14:58;;;;;;;3.50;3.20;;;4.20;99.90;;;;;;6215464;23;20382;-57
2023/11/18 04:17:27;;;;;;;3.53;3.23;;;4.20;99.90;;;;;;6215849;23;20153;-53
2023/11/18 04:19:57;;;;;;;8.03;5.73;;;4.20;99.90;;;;;;6190516;23;20494;-58
2023/11/18 04:22:23;;;;;;;7.70;5.40;;;4.30;99.90;;;;;;6216820;23;20389;-56
2023/11/18 04:24:49;;;;;;;5.73;4.80;;;4.30;99.90;;;;;;6216442;23;20421;-55
2023/11/18 04:27:15;;;;;;;5.40;4.60;;;4.30;1.00;;;;;;6215786;23;20660;-54
2023/11/18 04:29:41;;;;;;;5.00;4.13;;;4.40;1.00;;;;;;6216475;23;20420;-54
2023/11/18 04:32:10;;;;;;;4.83;4.37;;;4.40;1.00;;;;;;6215761;23;20185;-53
2023/11/18 04:34:36;;;;;;;5.40;4.90;;;4.40;1.00;;;;;;6214468;23;20151;-55
2023/11/18 04:37:03;;;;;;;5.47;4.93;;;4.50;1.00;;;;;;6215730;23;20427;-57
2023/11/18 04:39:30;;;;;;;5.47;4.97;;;4.50;1.00;;;;;;6216135;23;20488;-54
2023/11/18 04:41:56;;;;;;;5.40;4.20;;;4.50;1.00;;;;;;6216179;23;20385;-54
2023/11/18 04:44:22;;;;;;;5.87;5.30;;;4.60;99.90;;;;;;6216475;23;20404;-53
2023/11/18 04:46:47;;;;;;;5.30;4.80;;;4.60;99.90;;;;;;6215982;23;20625;-55
2023/11/18 04:49:13;;;;;;;4.80;4.40;;;4.60;99.90;;;;;;6216006;23;20146;-56
2023/11/18 04:51:38;;;;;;;5.23;4.73;;;4.50;99.90;;;;;;6216525;23;20231;-55
2023/11/18 04:54:07;;;;;;;5.77;4.80;;;4.50;99.90;;;;;;6216830;23;20232;-57
2023/11/18 04:56:35;;;;;;;9.10;6.33;;;4.50;99.90;;;;;;6216145;23;20153;-56
2023/11/18 04:59:01;;;;;;;5.87;5.37;;;4.50;99.90;;;;;;6189566;23;20349;-56
2023/11/18 05:01:27;;;;;;;6.87;6.27;;;4.50;99.90;;;;;;6215963;23;20452;-56
2023/11/18 05:03:54;;;;;;;6.20;5.60;;;4.50;99.90;;;;;;6217057;23;20381;-56
2023/11/18 05:06:20;;;;;;;6.13;5.63;;;4.50;99.90;;;;;;6216032;23;20692;-56
2023/11/18 05:08:45;;;;;;;6.23;5.63;;;4.50;99.90;;;;;;6215947;23;20385;-57
2023/11/18 05:11:12;;;;;;;6.30;5.70;;;4.50;99.90;;;;;;6215790;23;20518;-54
2023/11/18 05:13:40;;;;;;;5.33;4.40;;;4.50;99.90;;;;;;6215886;23;20494;-55
2023/11/18 05:16:06;;;;;;;6.13;5.53;;;4.60;1.00;;;;;;6217537;23;20681;-54
2023/11/18 05:18:34;;;;;;;7.50;6.17;;;5.30;1.00;;;;;;6218107;23;20476;-53
2023/11/18 05:21:00;;;;;;;9.20;7.10;;;6.10;1.00;;;;;;6217413;23;20388;-56
2023/11/18 05:23:26;;;;;;;7.87;7.07;;;6.70;1.00;;;;;;6215360;23;20395;-56
2023/11/18 05:25:51;;;;;;;6.83;6.17;;;7.20;1.00;;;;;;6189080;23;20872;-57
2023/11/18 05:28:17;;;;;;;5.37;4.87;;;7.50;1.00;;;;;;6216044;23;20153;-57
2023/11/18 05:30:45;;;;;;;6.67;5.60;;;7.20;1.00;;;;;;6215714;23;20150;-56
2023/11/18 05:33:17;;;;;;;4.87;4.47;;;6.90;1.00;;;;;;6216836;23;20600;-57
2023/11/18 05:35:48;;;;;;;5.20;4.70;;;6.60;1.00;;;;;;6215781;23;20419;-56
2023/11/18 05:38:16;;;;;;;6.43;5.83;;;6.30;1.00;;;;;;6216086;23;20445;-57
2023/11/18 05:40:44;;;;;;;6.10;5.57;;;6.10;1.00;;;;;;6216943;23;20423;-54
2023/11/18 05:43:15;;;;;;;4.80;4.40;;;5.90;1.00;;;;;;6218708;23;20656;-55
2023/11/18 05:46:12;;;;;;;6.17;5.67;;;5.60;99.90;;;;;;6216703;23;20466;-57
2023/11/18 05:48:27;;;;;;;5.37;4.87;;;5.40;99.90;;;;;;6217572;23;20385;-55
2023/11/18 05:50:52;;;;;;;11.00;5.90;;;5.30;99.90;;;;;;6218662;23;20385;-56
2023/11/18 05:53:18;;;;;;;6.80;5.73;;;5.20;99.90;;;;;;6217237;23;20233;-54
2023/11/18 05:55:43;;;;;;;6.60;6.00;;;5.10;99.90;;;;;;6217850;23;20217;-55
2023/11/18 05:58:09;;;;;;;5.70;5.20;;;5.00;99.90;;;;;;6217251;23;20545;-56
2023/11/18 06:00:35;;;;;;;6.00;5.23;;;4.90;99.90;;;;;;6213773;23;20154;-57
2023/11/18 06:03:01;;;;;;;6.20;5.60;;;4.80;99.90;;;;;;6214822;23;20395;-53
2023/11/18 06:05:29;;;;;;;6.30;5.70;;;4.80;99.90;;;;;;6214969;23;20186;-54
2023/11/18 06:07:55;;;;;;;5.93;5.33;;;4.70;99.90;;;;;;6215611;23;20126;-56
2023/11/18 06:10:21;;;;;;;6.63;5.80;;;4.70;99.90;;;;;;6215774;23;20732;-56
2023/11/18 06:12:47;;;;;;;7.50;6.10;;;4.60;99.90;;;;;;6215543;23;20479;-55
2023/11/18 06:15:14;;;;;;;6.90;6.30;;;4.60;99.90;;;;;;6216067;23;20662;-59
2023/11/18 06:17:40;;;;;;;7.97;6.73;;;4.50;99.90;;;;;;6216254;23;20158;-52
2023/11/18 06:20:06;;;;;;;7.33;6.37;;;4.50;99.90;;;;;;6216328;23;20365;-57
2023/11/18 06:22:32;;;;;;;11.17;7.40;;;4.40;99.90;;;;;;6215802;23;20356;-57
2023/11/18 06:24:57;;;;;;;8.33;7.53;;;4.40;99.90;;;;;;6216733;23;21004;-57
2023/11/18 06:27:24;;;;;;;8.30;7.47;;;4.30;99.90;;;;;;6214798;23;20665;-56
2023/11/18 06:29:50;;;;;;;9.27;8.30;;;4.30;99.90;;;;;;6214551;23;20184;-56
2023/11/18 06:32:16;;;;;;;8.40;7.60;;;4.30;99.90;;;;;;6207749;23;20866;-57
2023/11/18 06:34:41;;;;;;;8.40;7.23;;;4.20;99.90;;;;;;6215944;23;20476;-53
2023/11/18 06:37:07;;;;;;;8.97;8.07;;;4.20;99.90;;;;;;6215981;23;20222;-53
2023/11/18 06:39:35;;;;;;;11.47;8.37;;;4.20;1.00;;;;;;6215889;23;20158;-58
2023/11/18 06:42:02;;;;;;;10.83;9.73;;;4.30;99.90;;;;;;6216067;23;20142;-56
2023/11/18 06:44:28;;;;;;;9.27;8.27;;;4.30;99.90;;;;;;6216658;23;20358;-56
2023/11/18 06:46:55;;;;;;;10.10;9.10;;;4.30;99.90;;;;;;6216679;23;20391;-56
2023/11/18 06:49:20;;;;;;;9.13;8.23;;;4.30;99.90;;;;;;6217302;23;20388;-54
2023/11/18 06:51:46;;;;;;;9.60;8.70;;;4.30;99.90;;;;;;6217177;23;20464;-55
2023/11/18 06:54:13;;;;;;;9.10;8.27;;;4.30;99.90;;;;;;6217452;23;20133;-57
2023/11/18 06:56:42;;;;;;;9.40;8.40;;;4.30;99.90;;;;;;6215260;23;20130;-57
2023/11/18 06:59:10;;;;;;;9.70;8.70;;;4.30;99.90;;;;;;6215922;23;20385;-56
2023/11/18 07:01:36;;;;;;;8.50;7.60;;;4.40;99.90;;;;;;6215614;23;20453;-55
2023/11/18 07:04:02;;;;;;;9.33;8.40;;;4.40;99.90;;;;;;6215624;23;20399;-57
2023/11/18 07:06:27;;;;;;;8.83;7.93;;;4.50;99.90;;;;;;6214080;23;20424;-56
2023/11/18 07:08:54;;;;;;;9.83;8.93;;;4.50;99.90;;;;;;6214402;23;20360;-57
2023/11/18 07:11:20;;;;;;;9.50;8.60;;;4.70;99.90;;;;;;6215061;23;20146;-55
2023/11/18 07:13:47;;;;;;;13.27;8.27;;;4.70;99.90;;;;;;6215064;23;20391;-54
2023/11/18 07:16:14;;;;;;;8.90;8.10;;;4.90;99.90;;;;;;6215270;23;20197;-52
2023/11/18 07:18:41;;;;;;;7.50;6.80;;;5.10;99.90;;;;;;6213573;23;20394;-56
2023/11/18 07:21:09;;;;;;;7.83;7.13;;;5.30;99.90;;;;;;6212096;23;20449;-56
2023/11/18 07:23:34;;;;;;;7.50;6.80;;;5.60;97.80;;;;;;6210840;23;20361;-54
2023/11/18 07:26:00;;;;;;;7.90;6.97;;;5.90;34.30;;;;;;6211001;23;20421;-57
2023/11/18 07:28:26;;;;;;;7.10;6.40;;;6.10;1.00;;;;;;6209979;23;20177;-56
2023/11/18 07:30:53;;;;;;;7.40;6.70;;;6.30;99.90;;;;;;6210463;23;20636;-56
2023/11/18 07:33:20;;;;;;;7.00;5.90;;;6.30;1.00;;;;;;6212282;23;20448;-54
2023/11/18 07:35:46;;;;;;;7.90;5.77;;;6.30;1.00;;;;;;6212679;23;20360;-54
2023/11/18 07:38:12;;;;;;;7.00;6.30;;;6.10;1.00;;;;;;6214585;23;20384;-56
2023/11/18 07:40:42;;;;;;;7.20;6.50;;;6.10;1.00;;;;;;6214145;23;20385;-54
2023/11/18 07:43:08;;;;;;;7.43;6.63;;;6.00;1.00;;;;;;6213719;23;20380;-56
2023/11/18 07:45:37;;;;;;;7.50;6.77;;;6.00;99.90;;;;;;6213437;23;20432;-57
2023/11/18 07:48:07;;;;;;;8.57;7.60;;;6.00;99.90;;;;;;6215827;23;20423;-52
2023/11/18 07:50:36;;;;;;;6.90;6.20;;;6.10;69.10;;;;;;6216051;23;20440;-53
2023/11/18 07:53:02;;;;;;;6.37;5.77;;;6.00;99.90;;;;;;6216731;23;20876;-56
2023/11/18 07:55:29;;;;;;;6.77;6.17;;;6.10;99.90;;;;;;6187399;23;20403;-56
2023/11/18 07:57:55;;;;;;;6.30;5.43;;;6.10;99.90;;;;;;6215074;23;20514;-56
2023/11/18 08:00:21;;;;;;;6.73;6.13;;;6.20;99.90;;;;;;6215133;23;20771;-55
2023/11/18 08:02:46;;;;;;;5.60;5.10;;;6.30;99.90;;;;;;6214738;23;20366;-56
2023/11/18 08:05:15;;;;;;;8.10;6.13;;;6.30;18.90;;;;;;6214850;23;20432;-57
2023/11/18 08:07:43;;;;;;;7.77;5.80;;;6.40;1.00;;;;;;6213575;23;20150;-56
2023/11/18 08:10:12;;;;;;;6.70;5.27;;;6.40;1.00;;;;;;6214932;23;20380;-56
2023/11/18 08:12:38;;;;;;;6.43;4.57;;;6.50;1.00;;;;;;6213914;23;20673;-54
2023/11/18 08:15:06;;;;;;;5.83;4.13;;;6.40;1.00;;;;;;6213966;23;20472;-56
2023/11/18 08:17:33;;;;;;;4.37;3.97;;;6.40;1.00;;;;;;6186757;23;20466;-55
2023/11/18 08:20:00;;;;;;;4.00;3.70;;;6.40;1.00;;;;;;6213284;23;20764;-56
2023/11/18 08:22:25;;;;;;;3.80;3.50;;;6.30;1.00;;;;;;6215265;23;20775;-58
2023/11/18 08:24:51;;;;;;;3.70;3.40;;;6.20;99.90;;;;;;6213684;23;20436;-56
2023/11/18 08:27:17;;;;;;;4.60;4.07;;;6.20;1.00;;;;;;6214271;23;20131;-56
2023/11/18 08:29:42;;;;;;;3.50;3.20;;;6.10;1.00;;;;;;6214912;23;20200;-56
2023/11/18 08:32:12;;;;;;;4.17;3.77;;;6.20;1.00;;;;;;6214436;23;20650;-56
2023/11/18 08:34:37;;;;;;;3.60;3.30;;;6.30;1.00;;;;;;6185925;23;20613;-52
2023/11/18 08:37:06;;;;;;;3.30;2.80;;;6.40;1.00;;;;;;6213471;23;20487;-56
2023/11/18 08:39:32;;;;;;;4.90;4.03;;;6.50;1.00;;;;;;6213621;23;20177;-56
2023/11/18 08:41:58;;;;;;;4.73;4.30;;;6.60;1.00;;;;;;6215570;23;20769;-56
2023/11/18 08:44:23;;;;;;;3.10;2.80;;;6.70;99.90;;;;;;6214308;23;20233;-57
2023/11/18 08:46:51;;;;;;;3.60;2.93;;;6.70;99.90;;;;;;6216104;23;20154;-54
2023/11/18 08:49:23;;;;;;;3.57;2.90;;;6.80;99.90;;;;;;6186832;23;20180;-56
2023/11/18 08:51:52;;;;;;;3.40;3.00;;;6.90;99.90;;;;;;6212850;23;20384;-57
2023/11/18 08:54:22;;;;;;;3.00;2.70;;;7.10;1.00;;;;;;6213709;23;20409;-57
2023/11/18 08:56:52;;;;;;;3.83;2.80;;;7.20;99.90;;;;;;6214136;23;20688;-56
2023/11/18 08:59:24;;;;;;;2.40;2.20;;;7.20;54.00;;;;;;6186763;23;20376;-57
2023/11/18 09:01:55;;;;;;;5.93;2.90;;;7.10;1.00;;;;;;6186925;23;20397;-55
2023/11/18 09:04:25;;;;;;;2.87;1.93;;;7.00;1.00;;;;;;6214652;23;20427;-56
2023/11/18 09:06:54;;;;;;;3.23;2.27;;;6.90;99.90;;;;;;6164056;23;20454;-57
2023/11/18 09:09:26;;;;;;;3.10;2.23;;;7.10;1.00;;;;;;6215646;23;20380;-54
2023/11/18 09:11:57;;;;;;;2.40;2.00;;;7.40;1.00;;;;;;6214104;23;20820;-57
2023/11/18 09:14:31;;;;;;;3.67;2.00;;;7.80;99.90;;;;;;6214410;23;20789;-58
2023/11/18 09:16:58;;;;;;;10.50;2.27;;;8.10;1.00;;;;;;6213714;23;20487;-56
2023/11/18 09:19:25;;;;;;;2.67;2.30;;;8.20;99.90;;;;;;6212517;23;20480;-55
2023/11/18 09:21:51;;;;;;;4.50;2.57;;;8.20;99.90;;;;;;6214908;23;20860;-55
2023/11/18 09:24:19;;;;;;;3.20;2.10;;;8.40;99.90;;;;;;6215956;23;20358;-52
2023/11/18 09:26:47;;;;;;;3.67;1.80;;;8.40;99.90;;;;;;6216206;23;20381;-53
2023/11/18 09:29:17;;;;;;;5.00;2.07;;;8.50;1.00;;;;;;6214652;23;20384;-57
2023/11/18 09:31:47;;;;;;;3.50;1.97;;;8.30;45.50;;;;;;6214240;23;20384;-55
2023/11/18 09:34:17;;;;;;;2.30;2.10;;;8.40;99.90;;;;;;6181039;23;20449;-54
2023/11/18 09:36:47;;;;;;;3.27;2.00;;;8.30;1.00;;;;;;6182878;23;20382;-55
2023/11/18 09:39:28;;;;;;;4.87;2.53;;;8.40;37.60;;;;;;6184205;23;20350;-54
2023/11/18 09:41:57;;;;;;;4.47;2.20;;;8.50;11.10;;;;;;6181592;23;20361;-52
2023/11/18 09:44:26;;;;;;;2.50;1.67;;;8.30;99.90;;;;;;6183275;23;20381;-52
2023/11/18 09:47:03;;;;;;;2.20;1.80;;;8.50;1.00;;;;;;6182342;23;20378;-55
2023/11/18 09:49:38;;;;;;;2.37;1.83;;;8.80;99.90;;;;;;6183182;23;20540;-56
2023/11/18 09:52:05;;;;;;;2.20;1.60;;;9.00;99.90;;;;;;6183684;23;20805;-56
2023/11/18 09:54:41;;;;;;;1.90;1.70;;;9.50;1.00;;;;;;6183729;23;20386;-54
2023/11/18 09:57:08;;;;;;;2.00;1.50;;;10.10;1.00;;;;;;6183926;23;20430;-55
2023/11/18 09:59:55;;;;;;;1.87;1.57;;;10.30;1.00;;;;;;6185424;23;20792;-54
2023/11/18 10:02:25;;;;;;;2.07;1.50;;;10.50;99.90;;;;;;6186196;23;20425;-56
2023/11/18 10:04:57;;;;;;;2.67;1.43;;;10.40;99.90;;;;;;6186030;23;20516;-56
2023/11/18 10:07:26;;;;;;;2.03;1.63;;;10.60;99.90;;;;;;6186118;23;20686;-54
2023/11/18 10:09:57;;;;;;;2.33;1.40;;;10.30;99.90;;;;;;6186968;23;20497;-57
2023/11/18 10:12:23;;;;;;;2.50;1.30;;;10.30;99.90;;;;;;6184898;23;20405;-54
2023/11/18 10:14:52;;;;;;;1.77;1.40;;;10.50;99.90;;;;;;6187046;23;20577;-57
2023/11/18 10:17:19;;;;;;;1.60;1.50;;;10.70;99.90;;;;;;6186517;23;20409;-56
2023/11/18 10:19:59;;;;;;;1.73;1.47;;;10.60;99.90;;;;;;6186788;23;20390;-55
2023/11/18 10:22:29;;;;;;;2.63;1.80;;;9.90;99.90;;;;;;6187180;23;20829;-56
2023/11/18 10:24:55;;;;;;;4.50;1.50;;;9.70;99.90;;;;;;6185533;23;20418;-56
2023/11/18 10:27:25;;;;;;;3.83;1.60;;;9.80;99.90;;;;;;6183935;23;20437;-58
2023/11/18 10:29:52;;;;;;;2.30;1.40;;;9.90;99.90;;;;;;6185221;23;20411;-58
2023/11/18 10:32:21;;;;;;;2.10;1.87;;;9.80;99.90;;;;;;6184577;23;20377;-58
2023/11/18 10:34:51;;;;;;;2.30;1.97;;;10.00;99.90;;;;;;6189533;23;20405;-58
2023/11/18 10:37:17;;;;;;;2.80;1.73;;;9.90;99.90;;;;;;6214002;23;20397;-58
2023/11/18 10:39:48;;;;;;;1.97;1.53;;;9.60;99.90;;;;;;6189021;23;20385;-58
2023/11/18 10:42:17;;;;;;;2.40;1.67;;;9.70;1.00;;;;;;6214247;23;20130;-57
2023/11/18 10:45:03;;;;;;;2.60;1.70;;;10.00;1.00;;;;;;6215294;23;20734;-56
2023/11/18 10:47:32;;;;;;;2.10;1.53;;;9.80;99.90;;;;;;6188551;23;20373;-55
2023/11/18 10:50:01;;;;;;;1.83;1.63;;;9.80;99.90;;;;;;6215307;23;20407;-59
2023/11/18 10:52:30;;;;;;;3.60;2.20;;;9.80;1.00;;;;;;6215868;23;20385;-58
2023/11/18 10:54:56;;;;;;;1.73;1.60;;;10.00;1.00;;;;;;6214759;23;20418;-55
2023/11/18 10:57:22;;;;;;;2.20;1.57;;;10.20;99.90;;;;;;6189460;23;20381;-56
2023/11/18 11:00:03;;;;;;;2.60;1.40;;;9.90;99.90;;;;;;6215549;23;20135;-58
2023/11/18 11:02:39;;;;;;;1.83;1.57;;;9.70;99.90;;;;;;6216371;23;20365;-57
2023/11/18 11:05:06;;;;;;;2.57;1.60;;;9.80;99.90;;;;;;6216808;23;20420;-53
2023/11/18 11:07:32;;;;;;;5.10;2.17;;;9.90;99.90;;;;;;6214708;23;20384;-55
2023/11/18 11:10:04;;;;;;;2.00;1.60;;;9.70;99.90;;;;;;6216008;23;20475;-57
2023/11/18 11:12:33;;;;;;;1.33;1.00;;;9.60;99.90;;;;;;6214086;23;20424;-56
2023/11/18 11:15:13;;;;;;;2.67;1.60;;;9.50;99.90;;;;;;6214721;23;20434;-57
2023/11/18 11:17:42;;;;;;;2.40;1.90;;;9.50;99.90;;;;;;6213677;23;20423;-58
2023/11/18 11:20:23;;;;;;;1.70;1.20;;;9.20;99.90;;;;;;6187492;23;20385;-57
2023/11/18 11:23:21;;;;;;;3.37;1.80;;;8.90;99.90;;;;;;6214734;23;20389;-56
2023/11/18 11:26:05;;;;;;;1.70;1.30;;;8.90;1.00;;;;;;6214007;23;20461;-56
2023/11/18 11:28:57;;;;;;;1.40;1.30;;;9.00;1.00;;;;;;6186991;23;20384;-58
2023/11/18 11:31:32;;;;;;;2.67;1.43;;;9.10;1.00;;;;;;6209534;23;20393;-58
2023/11/18 11:34:07;;;;;;;2.90;1.90;;;9.10;1.00;;;;;;6215050;23;20435;-58
2023/11/18 11:36:46;;;;;;;3.63;2.07;;;9.10;1.00;;;;;;6215172;23;20849;-57
2023/11/18 11:39:15;;;;;;;3.63;1.70;;;9.10;1.00;;;;;;6189230;23;20507;-57
2023/11/18 11:41:45;;;;;;;3.00;1.70;;;9.20;1.00;;;;;;6213968;23;20357;-56
2023/11/18 11:44:15;;;;;;;2.67;2.07;;;9.20;1.00;;;;;;6212995;23;20385;-57
2023/11/18 11:46:42;;;;;;;2.80;2.10;;;9.00;1.00;;;;;;6214982;23;20491;-56
2023/11/18 11:49:27;;;;;;;3.53;2.17;;;9.00;1.00;;;;;;6214541;23;20389;-56
2023/11/18 11:51:55;;;;;;;3.60;1.87;;;8.90;1.00;;;;;;6213220;23;20499;-57
2023/11/18 11:54:28;;;;;;;3.47;2.50;;;8.70;1.00;;;;;;6213516;23;20823;-58
2023/11/18 11:56:59;;;;;;;2.70;1.90;;;8.70;90.80;;;;;;6187444;23;20384;-56
2023/11/18 11:59:46;;;;;;;3.30;1.90;;;8.70;99.90;;;;;;6214668;23;20369;-57
2023/11/18 12:02:15;;;;;;;3.53;2.20;;;8.70;99.90;;;;;;6212995;23;20514;-57
2023/11/18 12:04:45;;;;;;;2.93;2.20;;;8.70;99.90;;;;;;6187352;23;20393;-59
2023/11/18 12:07:14;;;;;;;3.93;2.13;;;8.70;1.00;;;;;;6213621;23;20391;-56
2023/11/18 12:09:43;;;;;;;2.83;2.53;;;8.50;1.00;;;;;;6187239;23;20424;-54
2023/11/18 12:12:19;;;;;;;4.87;3.93;;;8.50;44.40;;;;;;6186966;23;20365;-56
2023/11/18 12:15:00;;;;;;;4.70;3.60;;;8.50;1.00;;;;;;6213812;23;20357;-56
2023/11/18 12:17:31;;;;;;;3.23;2.73;;;8.50;99.90;;;;;;6212075;23;20357;-56
2023/11/18 12:20:06;;;;;;;2.90;2.70;;;8.40;99.90;;;;;;6186310;23;20776;-56
2023/11/18 12:23:14;;;;;;;3.30;2.30;;;8.30;1.00;;;;;;6212661;23;20391;-56
2023/11/18 12:25:45;;;;;;;3.90;2.60;;;8.30;57.70;;;;;;6214771;23;20464;-56
2023/11/18 12:28:21;;;;;;;3.23;2.50;;;8.30;3.30;;;;;;6213297;23;20450;-56
2023/11/18 12:30:55;;;;;;;5.40;2.63;;;8.30;99.90;;;;;;6212663;23;20450;-56
2023/11/18 12:33:26;;;;;;;2.43;2.00;;;8.30;99.90;;;;;;6212551;23;20491;-57
2023/11/18 12:35:54;;;;;;;2.73;2.17;;;8.20;99.90;;;;;;6213640;23;20358;-56
2023/11/18 12:38:51;;;;;;;4.90;2.70;;;8.30;99.90;;;;;;6214190;23;20385;-55
2023/11/18 12:41:37;;;;;;;2.80;2.10;;;8.30;1.00;;;;;;6212582;23;20463;-57
2023/11/18 12:44:21;;;;;;;3.57;2.43;;;8.10;1.00;;;;;;6211908;23;20389;-58
2023/11/18 12:47:20;;;;;;;2.83;2.17;;;8.30;1.00;;;;;;6212492;23;20501;-56
2023/11/18 12:49:54;;;;;;;4.60;2.60;;;8.30;1.00;;;;;;6212881;23;20828;-57
2023/11/18 12:52:21;;;;;;;3.90;2.80;;;8.10;99.90;;;;;;6213837;23;20724;-57
2023/11/18 12:54:50;;;;;;;3.30;2.20;;;8.10;1.00;;;;;;6212681;23;20542;-56
2023/11/18 12:57:17;;;;;;;2.27;2.07;;;8.00;33.10;;;;;;6212946;23;20353;-55
2023/11/18 12:59:43;;;;;;;4.23;2.20;;;8.00;99.90;;;;;;6212566;23;20361;-56
2023/11/18 13:02:18;;;;;;;9.37;2.50;;;8.00;99.90;;;;;;6213340;23;20396;-56
2023/11/18 13:04:47;;;;;;;3.47;2.73;;;8.00;99.90;;;;;;6212936;23;20729;-56